sensor_id;sensor_type;location;lat;lon;timestamp;P1;durP1;ratioP1;P2;durP2;ratioP2
8594;SDS011;4335;48.860;9.198;2022-12-19T00:00:17;29.63;;;15.77;;
8594;SDS011;4335;48.860;9.198;2022-12-19T00:02:45;29.87;;;14.50;;
8594;SDS011;4335;48.860;9.198;2022-12-19T00:05:15;29.73;;;15.47;;
8594;SDS011;4335;48.860;9.198;2022-12-19T00:07:43;27.37;;;15.90;;
8594;SDS011;4335;48.860;9.198;2022-12-19T00:10:21;26.80;;;16.17;;
8594;SDS011;4335;48.860;9.198;2022-12-19T00:12:48;27.43;;;16.20;;
8594;SDS011;4335;48.860;9.198;2022-12-19T00:15:18;29.40;;;16.93;;
8594;SDS011;4335;48.860;9.198;2022-12-19T00:17:48;26.30;;;15.50;;
8594;SDS011;4335;48.860;9.198;2022-12-19T00:20:21;28.77;;;16.47;;
8594;SDS011;4335;48.860;9.198;2022-12-19T00:22:49;29.33;;;15.87;;
8594;SDS011;4335;48.860;9.198;2022-12-19T00:25:16;28.77;;;16.27;;
8594;SDS011;4335;48.860;9.198;2022-12-19T00:27:45;28.47;;;16.47;;
8594;SDS011;4335;48.860;9.198;2022-12-19T00:30:13;33.17;;;17.80;;
8594;SDS011;4335;48.860;9.198;2022-12-19T00:32:43;35.33;;;17.10;;
8594;SDS011;4335;48.860;9.198;2022-12-19T00:35:11;26.73;;;15.20;;
8594;SDS011;4335;48.860;9.198;2022-12-19T00:37:39;27.87;;;16.60;;
8594;SDS011;4335;48.860;9.198;2022-12-19T00:40:10;29.40;;;16.47;;
8594;SDS011;4335;48.860;9.198;2022-12-19T00:42:40;28.00;;;15.17;;
8594;SDS011;4335;48.860;9.198;2022-12-19T00:45:09;30.10;;;17.33;;
8594;SDS011;4335;48.860;9.198;2022-12-19T00:47:37;28.47;;;16.43;;
8594;SDS011;4335;48.860;9.198;2022-12-19T00:50:04;29.20;;;16.63;;
8594;SDS011;4335;48.860;9.198;2022-12-19T00:52:32;29.37;;;15.80;;
8594;SDS011;4335;48.860;9.198;2022-12-19T00:55:00;29.13;;;16.37;;
8594;SDS011;4335;48.860;9.198;2022-12-19T00:57:30;32.33;;;16.53;;
8594;SDS011;4335;48.860;9.198;2022-12-19T00:59:57;29.37;;;15.17;;
8594;SDS011;4335;48.860;9.198;2022-12-19T01:02:28;30.37;;;16.60;;
8594;SDS011;4335;48.860;9.198;2022-12-19T01:04:56;32.30;;;16.27;;
8594;SDS011;4335;48.860;9.198;2022-12-19T01:07:30;31.97;;;15.77;;
8594;SDS011;4335;48.860;9.198;2022-12-19T01:10:01;29.47;;;17.10;;
8594;SDS011;4335;48.860;9.198;2022-12-19T01:12:31;30.50;;;15.43;;
8594;SDS011;4335;48.860;9.198;2022-12-19T01:15:11;27.57;;;15.70;;
8594;SDS011;4335;48.860;9.198;2022-12-19T01:17:40;29.07;;;16.10;;
8594;SDS011;4335;48.860;9.198;2022-12-19T01:20:11;30.23;;;16.57;;
8594;SDS011;4335;48.860;9.198;2022-12-19T01:22:43;32.63;;;16.57;;
8594;SDS011;4335;48.860;9.198;2022-12-19T01:25:11;29.83;;;15.17;;
8594;SDS011;4335;48.860;9.198;2022-12-19T01:27:39;28.70;;;15.13;;
8594;SDS011;4335;48.860;9.198;2022-12-19T01:30:12;29.50;;;16.53;;
8594;SDS011;4335;48.860;9.198;2022-12-19T01:32:43;26.97;;;14.30;;
8594;SDS011;4335;48.860;9.198;2022-12-19T01:35:11;37.87;;;17.33;;
8594;SDS011;4335;48.860;9.198;2022-12-19T01:37:41;28.73;;;16.73;;
8594;SDS011;4335;48.860;9.198;2022-12-19T01:40:12;26.10;;;15.43;;
8594;SDS011;4335;48.860;9.198;2022-12-19T01:42:39;31.20;;;16.40;;
8594;SDS011;4335;48.860;9.198;2022-12-19T01:45:23;26.57;;;15.73;;
8594;SDS011;4335;48.860;9.198;2022-12-19T01:47:59;27.70;;;13.27;;
8594;SDS011;4335;48.860;9.198;2022-12-19T01:50:42;27.73;;;15.03;;
8594;SDS011;4335;48.860;9.198;2022-12-19T01:53:16;25.10;;;15.03;;
8594;SDS011;4335;48.860;9.198;2022-12-19T01:55:45;30.50;;;16.03;;
8594;SDS011;4335;48.860;9.198;2022-12-19T01:58:12;28.77;;;16.67;;
8594;SDS011;4335;48.860;9.198;2022-12-19T02:00:46;25.00;;;14.23;;
8594;SDS011;4335;48.860;9.198;2022-12-19T02:03:18;32.20;;;16.30;;
8594;SDS011;4335;48.860;9.198;2022-12-19T02:05:50;27.77;;;15.30;;
8594;SDS011;4335;48.860;9.198;2022-12-19T02:08:18;32.03;;;16.83;;
8594;SDS011;4335;48.860;9.198;2022-12-19T02:10:46;30.27;;;15.70;;
8594;SDS011;4335;48.860;9.198;2022-12-19T02:13:18;30.50;;;16.40;;
8594;SDS011;4335;48.860;9.198;2022-12-19T02:15:48;34.07;;;17.97;;
8594;SDS011;4335;48.860;9.198;2022-12-19T02:18:27;30.60;;;17.57;;
8594;SDS011;4335;48.860;9.198;2022-12-19T02:21:10;29.93;;;16.03;;
8594;SDS011;4335;48.860;9.198;2022-12-19T02:24:11;28.83;;;16.50;;
8594;SDS011;4335;48.860;9.198;2022-12-19T02:26:59;28.77;;;16.27;;
8594;SDS011;4335;48.860;9.198;2022-12-19T02:29:43;28.63;;;16.70;;
8594;SDS011;4335;48.860;9.198;2022-12-19T02:32:32;32.93;;;16.53;;
8594;SDS011;4335;48.860;9.198;2022-12-19T02:35:07;30.87;;;17.03;;
8594;SDS011;4335;48.860;9.198;2022-12-19T02:37:46;34.80;;;16.40;;
8594;SDS011;4335;48.860;9.198;2022-12-19T02:40:18;33.70;;;15.93;;
8594;SDS011;4335;48.860;9.198;2022-12-19T02:42:56;27.97;;;16.30;;
8594;SDS011;4335;48.860;9.198;2022-12-19T02:45:26;31.37;;;17.00;;
8594;SDS011;4335;48.860;9.198;2022-12-19T02:47:59;30.57;;;17.27;;
8594;SDS011;4335;48.860;9.198;2022-12-19T02:50:34;35.37;;;18.10;;
8594;SDS011;4335;48.860;9.198;2022-12-19T02:53:05;37.03;;;18.53;;
8594;SDS011;4335;48.860;9.198;2022-12-19T02:55:37;36.13;;;20.07;;
8594;SDS011;4335;48.860;9.198;2022-12-19T02:58:20;34.53;;;19.00;;
8594;SDS011;4335;48.860;9.198;2022-12-19T03:01:14;30.63;;;18.83;;
8594;SDS011;4335;48.860;9.198;2022-12-19T03:03:55;35.17;;;20.27;;
8594;SDS011;4335;48.860;9.198;2022-12-19T03:06:32;39.90;;;21.17;;
8594;SDS011;4335;48.860;9.198;2022-12-19T03:09:10;35.17;;;20.50;;
8594;SDS011;4335;48.860;9.198;2022-12-19T03:11:45;42.57;;;22.63;;
8594;SDS011;4335;48.860;9.198;2022-12-19T03:14:17;41.63;;;22.30;;
8594;SDS011;4335;48.860;9.198;2022-12-19T03:16:49;32.53;;;20.07;;
8594;SDS011;4335;48.860;9.198;2022-12-19T03:19:20;35.70;;;21.07;;
8594;SDS011;4335;48.860;9.198;2022-12-19T03:21:49;27.80;;;16.43;;
8594;SDS011;4335;48.860;9.198;2022-12-19T03:24:20;34.20;;;19.57;;
8594;SDS011;4335;48.860;9.198;2022-12-19T03:26:49;34.73;;;20.90;;
8594;SDS011;4335;48.860;9.198;2022-12-19T03:29:21;35.37;;;19.30;;
8594;SDS011;4335;48.860;9.198;2022-12-19T03:31:58;35.43;;;19.87;;
8594;SDS011;4335;48.860;9.198;2022-12-19T03:34:35;37.63;;;21.47;;
8594;SDS011;4335;48.860;9.198;2022-12-19T03:37:09;33.63;;;17.87;;
8594;SDS011;4335;48.860;9.198;2022-12-19T03:39:47;33.33;;;19.53;;
8594;SDS011;4335;48.860;9.198;2022-12-19T03:42:18;36.40;;;19.67;;
8594;SDS011;4335;48.860;9.198;2022-12-19T03:45:06;39.30;;;19.73;;
8594;SDS011;4335;48.860;9.198;2022-12-19T03:47:35;34.70;;;19.60;;
8594;SDS011;4335;48.860;9.198;2022-12-19T03:50:08;34.50;;;18.70;;
8594;SDS011;4335;48.860;9.198;2022-12-19T03:52:45;32.33;;;18.80;;
8594;SDS011;4335;48.860;9.198;2022-12-19T03:55:25;33.90;;;20.10;;
8594;SDS011;4335;48.860;9.198;2022-12-19T03:58:04;35.37;;;17.57;;
8594;SDS011;4335;48.860;9.198;2022-12-19T04:00:35;32.57;;;19.03;;
8594;SDS011;4335;48.860;9.198;2022-12-19T04:03:11;31.27;;;17.83;;
8594;SDS011;4335;48.860;9.198;2022-12-19T04:05:45;33.97;;;18.97;;
8594;SDS011;4335;48.860;9.198;2022-12-19T04:08:14;33.00;;;18.77;;
8594;SDS011;4335;48.860;9.198;2022-12-19T04:10:49;37.00;;;18.47;;
8594;SDS011;4335;48.860;9.198;2022-12-19T04:13:20;30.63;;;18.10;;
8594;SDS011;4335;48.860;9.198;2022-12-19T04:15:53;37.10;;;20.33;;
8594;SDS011;4335;48.860;9.198;2022-12-19T04:18:25;31.93;;;19.03;;
8594;SDS011;4335;48.860;9.198;2022-12-19T04:21:00;30.57;;;16.43;;
8594;SDS011;4335;48.860;9.198;2022-12-19T04:23:32;29.27;;;17.50;;
8594;SDS011;4335;48.860;9.198;2022-12-19T04:26:03;29.83;;;15.73;;
8594;SDS011;4335;48.860;9.198;2022-12-19T04:28:32;27.43;;;15.23;;
8594;SDS011;4335;48.860;9.198;2022-12-19T04:31:04;36.70;;;17.17;;
8594;SDS011;4335;48.860;9.198;2022-12-19T04:33:33;29.03;;;16.80;;
8594;SDS011;4335;48.860;9.198;2022-12-19T04:36:02;31.77;;;18.57;;
8594;SDS011;4335;48.860;9.198;2022-12-19T04:38:30;30.37;;;17.47;;
8594;SDS011;4335;48.860;9.198;2022-12-19T04:40:58;32.77;;;18.60;;
8594;SDS011;4335;48.860;9.198;2022-12-19T04:43:25;28.30;;;15.97;;
8594;SDS011;4335;48.860;9.198;2022-12-19T04:45:53;30.30;;;15.83;;
8594;SDS011;4335;48.860;9.198;2022-12-19T04:48:20;32.37;;;17.27;;
8594;SDS011;4335;48.860;9.198;2022-12-19T04:50:48;27.60;;;15.27;;
8594;SDS011;4335;48.860;9.198;2022-12-19T04:53:17;27.33;;;17.00;;
8594;SDS011;4335;48.860;9.198;2022-12-19T04:55:44;24.73;;;16.00;;
8594;SDS011;4335;48.860;9.198;2022-12-19T04:58:11;29.80;;;16.10;;
8594;SDS011;4335;48.860;9.198;2022-12-19T05:00:42;32.53;;;17.23;;
8594;SDS011;4335;48.860;9.198;2022-12-19T05:03:09;27.23;;;16.07;;
8594;SDS011;4335;48.860;9.198;2022-12-19T05:05:39;31.57;;;14.97;;
8594;SDS011;4335;48.860;9.198;2022-12-19T05:08:23;30.90;;;18.43;;
8594;SDS011;4335;48.860;9.198;2022-12-19T05:10:50;30.90;;;17.47;;
8594;SDS011;4335;48.860;9.198;2022-12-19T05:13:20;28.73;;;15.83;;
8594;SDS011;4335;48.860;9.198;2022-12-19T05:15:53;24.57;;;14.80;;
8594;SDS011;4335;48.860;9.198;2022-12-19T05:18:28;28.73;;;15.53;;
8594;SDS011;4335;48.860;9.198;2022-12-19T05:20:56;32.37;;;16.90;;
8594;SDS011;4335;48.860;9.198;2022-12-19T05:23:25;32.03;;;17.83;;
8594;SDS011;4335;48.860;9.198;2022-12-19T05:25:56;29.67;;;16.10;;
8594;SDS011;4335;48.860;9.198;2022-12-19T05:28:29;28.87;;;17.20;;
8594;SDS011;4335;48.860;9.198;2022-12-19T05:31:04;33.77;;;18.47;;
8594;SDS011;4335;48.860;9.198;2022-12-19T05:33:32;27.60;;;17.73;;
8594;SDS011;4335;48.860;9.198;2022-12-19T05:36:00;35.00;;;17.63;;
8594;SDS011;4335;48.860;9.198;2022-12-19T05:38:36;29.23;;;16.87;;
8594;SDS011;4335;48.860;9.198;2022-12-19T05:41:07;29.87;;;17.63;;
8594;SDS011;4335;48.860;9.198;2022-12-19T05:43:35;29.13;;;17.07;;
8594;SDS011;4335;48.860;9.198;2022-12-19T05:46:06;33.97;;;17.80;;
8594;SDS011;4335;48.860;9.198;2022-12-19T05:48:34;30.30;;;16.67;;
8594;SDS011;4335;48.860;9.198;2022-12-19T05:51:05;31.07;;;17.67;;
8594;SDS011;4335;48.860;9.198;2022-12-19T05:53:35;32.60;;;17.20;;
8594;SDS011;4335;48.860;9.198;2022-12-19T05:56:03;30.93;;;16.90;;
8594;SDS011;4335;48.860;9.198;2022-12-19T05:58:32;28.43;;;17.10;;
8594;SDS011;4335;48.860;9.198;2022-12-19T06:01:00;34.17;;;17.37;;
8594;SDS011;4335;48.860;9.198;2022-12-19T06:03:31;29.80;;;17.10;;
8594;SDS011;4335;48.860;9.198;2022-12-19T06:06:05;31.77;;;17.07;;
8594;SDS011;4335;48.860;9.198;2022-12-19T06:08:36;32.33;;;18.30;;
8594;SDS011;4335;48.860;9.198;2022-12-19T06:11:07;32.87;;;16.10;;
8594;SDS011;4335;48.860;9.198;2022-12-19T06:13:35;30.60;;;16.97;;
8594;SDS011;4335;48.860;9.198;2022-12-19T06:16:09;30.80;;;18.40;;
8594;SDS011;4335;48.860;9.198;2022-12-19T06:18:42;31.10;;;17.40;;
8594;SDS011;4335;48.860;9.198;2022-12-19T06:21:10;30.50;;;16.07;;
8594;SDS011;4335;48.860;9.198;2022-12-19T06:23:40;30.17;;;16.93;;
8594;SDS011;4335;48.860;9.198;2022-12-19T06:26:09;32.93;;;18.03;;
8594;SDS011;4335;48.860;9.198;2022-12-19T06:28:38;30.47;;;18.07;;
8594;SDS011;4335;48.860;9.198;2022-12-19T06:31:06;31.33;;;17.67;;
8594;SDS011;4335;48.860;9.198;2022-12-19T06:33:33;36.43;;;18.23;;
8594;SDS011;4335;48.860;9.198;2022-12-19T06:36:02;29.23;;;17.53;;
8594;SDS011;4335;48.860;9.198;2022-12-19T06:38:32;29.03;;;17.50;;
8594;SDS011;4335;48.860;9.198;2022-12-19T06:41:10;29.87;;;17.03;;
8594;SDS011;4335;48.860;9.198;2022-12-19T06:43:56;39.23;;;19.67;;
8594;SDS011;4335;48.860;9.198;2022-12-19T06:46:24;32.47;;;18.50;;
8594;SDS011;4335;48.860;9.198;2022-12-19T06:48:52;31.50;;;17.50;;
8594;SDS011;4335;48.860;9.198;2022-12-19T06:51:19;35.33;;;18.13;;
8594;SDS011;4335;48.860;9.198;2022-12-19T06:53:47;30.77;;;17.03;;
8594;SDS011;4335;48.860;9.198;2022-12-19T06:56:16;31.33;;;17.87;;
8594;SDS011;4335;48.860;9.198;2022-12-19T06:58:44;30.67;;;16.50;;
8594;SDS011;4335;48.860;9.198;2022-12-19T07:01:18;29.80;;;17.10;;
8594;SDS011;4335;48.860;9.198;2022-12-19T07:03:46;31.67;;;17.17;;
8594;SDS011;4335;48.860;9.198;2022-12-19T07:06:14;32.00;;;17.07;;
8594;SDS011;4335;48.860;9.198;2022-12-19T07:08:45;32.23;;;18.13;;
8594;SDS011;4335;48.860;9.198;2022-12-19T07:11:12;32.23;;;18.17;;
8594;SDS011;4335;48.860;9.198;2022-12-19T07:13:44;35.93;;;19.13;;
8594;SDS011;4335;48.860;9.198;2022-12-19T07:16:12;33.77;;;17.87;;
8594;SDS011;4335;48.860;9.198;2022-12-19T07:18:42;28.97;;;16.53;;
8594;SDS011;4335;48.860;9.198;2022-12-19T07:21:11;32.53;;;17.83;;
8594;SDS011;4335;48.860;9.198;2022-12-19T07:23:41;38.47;;;18.67;;
8594;SDS011;4335;48.860;9.198;2022-12-19T07:26:09;31.63;;;17.80;;
8594;SDS011;4335;48.860;9.198;2022-12-19T07:28:50;34.77;;;17.50;;
8594;SDS011;4335;48.860;9.198;2022-12-19T07:31:19;32.07;;;17.90;;
8594;SDS011;4335;48.860;9.198;2022-12-19T07:33:46;37.40;;;19.93;;
8594;SDS011;4335;48.860;9.198;2022-12-19T07:36:17;32.97;;;18.30;;
8594;SDS011;4335;48.860;9.198;2022-12-19T07:38:47;30.77;;;18.10;;
8594;SDS011;4335;48.860;9.198;2022-12-19T07:41:17;30.37;;;17.77;;
8594;SDS011;4335;48.860;9.198;2022-12-19T07:43:46;30.13;;;16.10;;
8594;SDS011;4335;48.860;9.198;2022-12-19T07:46:15;31.57;;;17.80;;
8594;SDS011;4335;48.860;9.198;2022-12-19T07:48:42;31.60;;;17.13;;
8594;SDS011;4335;48.860;9.198;2022-12-19T07:51:13;34.37;;;19.17;;
8594;SDS011;4335;48.860;9.198;2022-12-19T07:53:43;35.30;;;18.43;;
8594;SDS011;4335;48.860;9.198;2022-12-19T07:56:10;35.33;;;17.80;;
8594;SDS011;4335;48.860;9.198;2022-12-19T07:58:41;33.70;;;18.87;;
8594;SDS011;4335;48.860;9.198;2022-12-19T08:01:08;32.40;;;16.70;;
8594;SDS011;4335;48.860;9.198;2022-12-19T08:03:38;31.67;;;18.57;;
8594;SDS011;4335;48.860;9.198;2022-12-19T08:08:45;32.43;;;18.70;;
8594;SDS011;4335;48.860;9.198;2022-12-19T08:11:18;27.43;;;16.40;;
8594;SDS011;4335;48.860;9.198;2022-12-19T08:13:51;26.30;;;15.77;;
8594;SDS011;4335;48.860;9.198;2022-12-19T08:16:19;29.93;;;16.00;;
8594;SDS011;4335;48.860;9.198;2022-12-19T08:18:48;31.93;;;17.47;;
8594;SDS011;4335;48.860;9.198;2022-12-19T08:21:15;31.37;;;17.90;;
8594;SDS011;4335;48.860;9.198;2022-12-19T08:23:43;25.73;;;15.90;;
8594;SDS011;4335;48.860;9.198;2022-12-19T08:26:14;27.30;;;16.10;;
8594;SDS011;4335;48.860;9.198;2022-12-19T08:28:46;26.47;;;15.73;;
8594;SDS011;4335;48.860;9.198;2022-12-19T08:31:14;30.87;;;16.67;;
8594;SDS011;4335;48.860;9.198;2022-12-19T08:33:45;27.80;;;16.87;;
8594;SDS011;4335;48.860;9.198;2022-12-19T08:36:24;27.93;;;15.57;;
8594;SDS011;4335;48.860;9.198;2022-12-19T08:38:51;27.43;;;16.30;;
8594;SDS011;4335;48.860;9.198;2022-12-19T08:41:19;26.07;;;16.17;;
8594;SDS011;4335;48.860;9.198;2022-12-19T08:43:47;27.53;;;16.87;;
8594;SDS011;4335;48.860;9.198;2022-12-19T08:46:18;27.13;;;15.67;;
8594;SDS011;4335;48.860;9.198;2022-12-19T08:48:48;26.80;;;15.60;;
8594;SDS011;4335;48.860;9.198;2022-12-19T08:51:19;26.40;;;16.17;;
8594;SDS011;4335;48.860;9.198;2022-12-19T08:53:46;32.10;;;16.83;;
8594;SDS011;4335;48.860;9.198;2022-12-19T08:56:15;27.03;;;15.47;;
8594;SDS011;4335;48.860;9.198;2022-12-19T08:58:43;27.53;;;14.80;;
8594;SDS011;4335;48.860;9.198;2022-12-19T09:01:13;26.57;;;14.20;;
8594;SDS011;4335;48.860;9.198;2022-12-19T09:03:46;28.30;;;16.63;;
8594;SDS011;4335;48.860;9.198;2022-12-19T09:06:15;26.37;;;15.57;;
8594;SDS011;4335;48.860;9.198;2022-12-19T09:08:42;27.60;;;16.73;;
8594;SDS011;4335;48.860;9.198;2022-12-19T09:11:10;21.20;;;15.37;;
8594;SDS011;4335;48.860;9.198;2022-12-19T09:13:39;31.67;;;18.07;;
8594;SDS011;4335;48.860;9.198;2022-12-19T09:16:09;28.83;;;17.50;;
8594;SDS011;4335;48.860;9.198;2022-12-19T09:18:38;27.17;;;16.87;;
8594;SDS011;4335;48.860;9.198;2022-12-19T09:21:07;32.67;;;16.60;;
8594;SDS011;4335;48.860;9.198;2022-12-19T09:23:36;24.63;;;15.77;;
8594;SDS011;4335;48.860;9.198;2022-12-19T09:26:04;27.20;;;16.33;;
8594;SDS011;4335;48.860;9.198;2022-12-19T09:28:35;24.27;;;14.30;;
8594;SDS011;4335;48.860;9.198;2022-12-19T09:31:07;28.57;;;15.60;;
8594;SDS011;4335;48.860;9.198;2022-12-19T09:33:39;24.30;;;14.90;;
8594;SDS011;4335;48.860;9.198;2022-12-19T09:36:09;28.40;;;15.10;;
8594;SDS011;4335;48.860;9.198;2022-12-19T09:38:46;25.70;;;14.83;;
8594;SDS011;4335;48.860;9.198;2022-12-19T09:44:28;20.23;;;12.77;;
8594;SDS011;4335;48.860;9.198;2022-12-19T09:47:09;21.37;;;13.63;;
8594;SDS011;4335;48.860;9.198;2022-12-19T09:49:39;28.50;;;14.90;;
8594;SDS011;4335;48.860;9.198;2022-12-19T09:52:10;26.87;;;15.00;;
8594;SDS011;4335;48.860;9.198;2022-12-19T09:54:42;19.90;;;12.87;;
8594;SDS011;4335;48.860;9.198;2022-12-19T09:57:13;23.53;;;15.07;;
8594;SDS011;4335;48.860;9.198;2022-12-19T09:59:45;23.83;;;14.57;;
8594;SDS011;4335;48.860;9.198;2022-12-19T10:02:21;26.70;;;14.47;;
8594;SDS011;4335;48.860;9.198;2022-12-19T10:05:01;22.70;;;14.00;;
8594;SDS011;4335;48.860;9.198;2022-12-19T10:07:32;27.10;;;14.57;;
8594;SDS011;4335;48.860;9.198;2022-12-19T10:10:11;23.00;;;16.00;;
8594;SDS011;4335;48.860;9.198;2022-12-19T10:12:42;26.07;;;14.60;;
8594;SDS011;4335;48.860;9.198;2022-12-19T10:15:24;24.33;;;13.30;;
8594;SDS011;4335;48.860;9.198;2022-12-19T10:18:04;24.63;;;14.00;;
8594;SDS011;4335;48.860;9.198;2022-12-19T10:20:47;26.27;;;14.80;;
8594;SDS011;4335;48.860;9.198;2022-12-19T10:23:29;23.27;;;14.17;;
8594;SDS011;4335;48.860;9.198;2022-12-19T10:26:16;22.97;;;13.20;;
8594;SDS011;4335;48.860;9.198;2022-12-19T10:28:56;20.33;;;14.83;;
8594;SDS011;4335;48.860;9.198;2022-12-19T10:31:34;24.70;;;15.23;;
8594;SDS011;4335;48.860;9.198;2022-12-19T10:34:12;23.73;;;14.50;;
8594;SDS011;4335;48.860;9.198;2022-12-19T10:36:46;23.77;;;13.03;;
8594;SDS011;4335;48.860;9.198;2022-12-19T10:39:21;19.73;;;11.73;;
8594;SDS011;4335;48.860;9.198;2022-12-19T10:41:55;22.50;;;12.00;;
8594;SDS011;4335;48.860;9.198;2022-12-19T10:44:31;22.10;;;13.33;;
8594;SDS011;4335;48.860;9.198;2022-12-19T10:47:09;22.90;;;14.40;;
8594;SDS011;4335;48.860;9.198;2022-12-19T10:49:45;28.57;;;17.40;;
8594;SDS011;4335;48.860;9.198;2022-12-19T10:52:13;20.67;;;13.30;;
8594;SDS011;4335;48.860;9.198;2022-12-19T10:54:41;19.43;;;13.20;;
8594;SDS011;4335;48.860;9.198;2022-12-19T10:57:17;22.17;;;13.53;;
8594;SDS011;4335;48.860;9.198;2022-12-19T10:59:58;23.47;;;13.87;;
8594;SDS011;4335;48.860;9.198;2022-12-19T11:02:39;20.90;;;12.53;;
8594;SDS011;4335;48.860;9.198;2022-12-19T11:05:21;25.63;;;14.23;;
8594;SDS011;4335;48.860;9.198;2022-12-19T11:08:03;24.67;;;15.07;;
8594;SDS011;4335;48.860;9.198;2022-12-19T11:10:45;23.10;;;14.87;;
8594;SDS011;4335;48.860;9.198;2022-12-19T11:13:24;26.47;;;15.60;;
8594;SDS011;4335;48.860;9.198;2022-12-19T11:15:54;19.60;;;13.20;;
8594;SDS011;4335;48.860;9.198;2022-12-19T11:18:23;21.20;;;13.70;;
8594;SDS011;4335;48.860;9.198;2022-12-19T11:20:59;20.63;;;13.87;;
8594;SDS011;4335;48.860;9.198;2022-12-19T11:23:28;20.47;;;13.83;;
8594;SDS011;4335;48.860;9.198;2022-12-19T11:26:00;20.87;;;14.40;;
8594;SDS011;4335;48.860;9.198;2022-12-19T11:28:31;22.07;;;14.17;;
8594;SDS011;4335;48.860;9.198;2022-12-19T11:31:01;21.77;;;13.30;;
8594;SDS011;4335;48.860;9.198;2022-12-19T11:33:31;19.83;;;13.90;;
8594;SDS011;4335;48.860;9.198;2022-12-19T11:36:00;22.27;;;13.83;;
8594;SDS011;4335;48.860;9.198;2022-12-19T11:38:33;22.80;;;15.50;;
8594;SDS011;4335;48.860;9.198;2022-12-19T11:41:08;23.80;;;15.27;;
8594;SDS011;4335;48.860;9.198;2022-12-19T11:43:48;21.53;;;13.97;;
8594;SDS011;4335;48.860;9.198;2022-12-19T11:46:23;21.90;;;14.40;;
8594;SDS011;4335;48.860;9.198;2022-12-19T11:49:15;26.60;;;15.73;;
8594;SDS011;4335;48.860;9.198;2022-12-19T11:51:51;25.03;;;15.33;;
8594;SDS011;4335;48.860;9.198;2022-12-19T11:54:23;22.50;;;15.67;;
8594;SDS011;4335;48.860;9.198;2022-12-19T11:56:58;20.43;;;14.47;;
8594;SDS011;4335;48.860;9.198;2022-12-19T11:59:28;23.80;;;15.70;;
8594;SDS011;4335;48.860;9.198;2022-12-19T12:02:00;22.97;;;15.40;;
8594;SDS011;4335;48.860;9.198;2022-12-19T12:04:53;21.83;;;15.13;;
8594;SDS011;4335;48.860;9.198;2022-12-19T12:07:36;20.40;;;14.17;;
8594;SDS011;4335;48.860;9.198;2022-12-19T12:10:12;22.63;;;14.90;;
8594;SDS011;4335;48.860;9.198;2022-12-19T12:12:45;22.47;;;15.40;;
8594;SDS011;4335;48.860;9.198;2022-12-19T12:15:30;22.57;;;14.43;;
8594;SDS011;4335;48.860;9.198;2022-12-19T12:18:11;23.73;;;15.40;;
8594;SDS011;4335;48.860;9.198;2022-12-19T12:20:48;30.33;;;17.30;;
8594;SDS011;4335;48.860;9.198;2022-12-19T12:23:31;24.87;;;14.43;;
8594;SDS011;4335;48.860;9.198;2022-12-19T12:26:02;19.47;;;13.70;;
8594;SDS011;4335;48.860;9.198;2022-12-19T12:28:52;25.23;;;14.17;;
8594;SDS011;4335;48.860;9.198;2022-12-19T12:31:30;22.33;;;13.97;;
8594;SDS011;4335;48.860;9.198;2022-12-19T12:34:06;23.07;;;14.30;;
8594;SDS011;4335;48.860;9.198;2022-12-19T12:37:02;21.00;;;14.30;;
8594;SDS011;4335;48.860;9.198;2022-12-19T12:39:39;18.70;;;12.60;;
8594;SDS011;4335;48.860;9.198;2022-12-19T12:42:18;21.07;;;13.97;;
8594;SDS011;4335;48.860;9.198;2022-12-19T12:44:55;18.93;;;13.97;;
8594;SDS011;4335;48.860;9.198;2022-12-19T12:47:30;19.20;;;13.60;;
8594;SDS011;4335;48.860;9.198;2022-12-19T12:49:59;23.67;;;15.53;;
8594;SDS011;4335;48.860;9.198;2022-12-19T12:52:29;19.03;;;14.13;;
8594;SDS011;4335;48.860;9.198;2022-12-19T12:54:59;19.20;;;13.37;;
8594;SDS011;4335;48.860;9.198;2022-12-19T12:57:32;19.47;;;13.40;;
8594;SDS011;4335;48.860;9.198;2022-12-19T13:00:15;22.10;;;13.87;;
8594;SDS011;4335;48.860;9.198;2022-12-19T13:02:47;20.60;;;13.37;;
8594;SDS011;4335;48.860;9.198;2022-12-19T13:08:29;23.77;;;14.77;;
8594;SDS011;4335;48.860;9.198;2022-12-19T13:11:00;17.90;;;13.67;;
8594;SDS011;4335;48.860;9.198;2022-12-19T13:19:16;22.93;;;14.53;;
8594;SDS011;4335;48.860;9.198;2022-12-19T13:24:41;20.80;;;13.90;;
8594;SDS011;4335;48.860;9.198;2022-12-19T13:30:15;24.07;;;15.03;;
8594;SDS011;4335;48.860;9.198;2022-12-19T13:35:35;22.40;;;14.73;;
8594;SDS011;4335;48.860;9.198;2022-12-19T13:38:13;23.07;;;15.83;;
8594;SDS011;4335;48.860;9.198;2022-12-19T13:41:02;24.83;;;15.63;;
8594;SDS011;4335;48.860;9.198;2022-12-19T13:43:54;24.23;;;14.50;;
8594;SDS011;4335;48.860;9.198;2022-12-19T13:46:30;22.23;;;15.40;;
8594;SDS011;4335;48.860;9.198;2022-12-19T13:49:06;23.73;;;14.50;;
8594;SDS011;4335;48.860;9.198;2022-12-19T13:51:46;23.47;;;13.93;;
8594;SDS011;4335;48.860;9.198;2022-12-19T13:54:19;20.33;;;13.23;;
8594;SDS011;4335;48.860;9.198;2022-12-19T13:56:48;20.17;;;13.90;;
8594;SDS011;4335;48.860;9.198;2022-12-19T13:59:16;21.13;;;14.67;;
8594;SDS011;4335;48.860;9.198;2022-12-19T14:01:44;22.73;;;15.10;;
8594;SDS011;4335;48.860;9.198;2022-12-19T14:04:13;22.00;;;14.47;;
8594;SDS011;4335;48.860;9.198;2022-12-19T14:06:57;23.10;;;14.40;;
8594;SDS011;4335;48.860;9.198;2022-12-19T14:09:30;20.63;;;15.07;;
8594;SDS011;4335;48.860;9.198;2022-12-19T14:12:03;22.87;;;15.10;;
8594;SDS011;4335;48.860;9.198;2022-12-19T14:17:46;22.63;;;16.33;;
8594;SDS011;4335;48.860;9.198;2022-12-19T14:20:16;23.53;;;15.70;;
8594;SDS011;4335;48.860;9.198;2022-12-19T14:22:49;21.27;;;14.27;;
8594;SDS011;4335;48.860;9.198;2022-12-19T14:25:25;24.37;;;15.70;;
8594;SDS011;4335;48.860;9.198;2022-12-19T14:28:02;20.47;;;14.70;;
8594;SDS011;4335;48.860;9.198;2022-12-19T14:30:35;24.33;;;14.97;;
8594;SDS011;4335;48.860;9.198;2022-12-19T14:33:11;23.80;;;14.37;;
8594;SDS011;4335;48.860;9.198;2022-12-19T14:35:43;20.07;;;14.77;;
8594;SDS011;4335;48.860;9.198;2022-12-19T14:38:16;21.83;;;14.57;;
8594;SDS011;4335;48.860;9.198;2022-12-19T14:40:45;21.30;;;14.70;;
8594;SDS011;4335;48.860;9.198;2022-12-19T14:43:22;21.23;;;14.37;;
8594;SDS011;4335;48.860;9.198;2022-12-19T14:46:11;22.10;;;14.40;;
8594;SDS011;4335;48.860;9.198;2022-12-19T14:48:52;21.60;;;14.63;;
8594;SDS011;4335;48.860;9.198;2022-12-19T14:51:25;19.90;;;13.57;;
8594;SDS011;4335;48.860;9.198;2022-12-19T14:54:16;20.23;;;14.53;;
8594;SDS011;4335;48.860;9.198;2022-12-19T14:56:45;18.30;;;13.57;;
8594;SDS011;4335;48.860;9.198;2022-12-19T14:59:17;22.93;;;14.93;;
8594;SDS011;4335;48.860;9.198;2022-12-19T15:02:08;16.87;;;13.33;;
8594;SDS011;4335;48.860;9.198;2022-12-19T15:04:41;26.10;;;14.10;;
8594;SDS011;4335;48.860;9.198;2022-12-19T15:07:13;20.37;;;13.53;;
8594;SDS011;4335;48.860;9.198;2022-12-19T15:09:50;21.70;;;15.43;;
8594;SDS011;4335;48.860;9.198;2022-12-19T15:12:24;18.17;;;13.47;;
8594;SDS011;4335;48.860;9.198;2022-12-19T15:15:20;20.80;;;13.47;;
8594;SDS011;4335;48.860;9.198;2022-12-19T15:17:50;19.80;;;14.47;;
8594;SDS011;4335;48.860;9.198;2022-12-19T15:20:19;21.67;;;14.70;;
8594;SDS011;4335;48.860;9.198;2022-12-19T15:22:46;24.87;;;15.50;;
8594;SDS011;4335;48.860;9.198;2022-12-19T15:25:16;18.07;;;13.90;;
8594;SDS011;4335;48.860;9.198;2022-12-19T15:27:44;22.63;;;14.97;;
8594;SDS011;4335;48.860;9.198;2022-12-19T15:30:18;22.60;;;15.83;;
8594;SDS011;4335;48.860;9.198;2022-12-19T15:32:47;20.37;;;14.63;;
8594;SDS011;4335;48.860;9.198;2022-12-19T15:35:20;22.40;;;13.83;;
8594;SDS011;4335;48.860;9.198;2022-12-19T15:37:48;19.07;;;14.33;;
8594;SDS011;4335;48.860;9.198;2022-12-19T15:40:17;21.40;;;14.57;;
8594;SDS011;4335;48.860;9.198;2022-12-19T15:42:45;19.93;;;13.10;;
8594;SDS011;4335;48.860;9.198;2022-12-19T15:45:18;21.33;;;14.13;;
8594;SDS011;4335;48.860;9.198;2022-12-19T15:47:46;23.13;;;14.37;;